DLH742 EDDM-RJBB
Flight info
| Callsign | DLH742 |
|---|---|
| Flight time | N/A |
| Altitude | 23000 |
| Route | KIRDI3S KIRDI DCT BUWOQ DCT OBFEZ/N0486F350 DCT STEIN DCT TEGRI DCT DINRO DCT UDROS/N0488F370 UM859 KARDE UN644 ROLIN DCT TAGAR DCT BT DCT BARAD M747 SUBUT T916 LEYLA N161 GASBI/K0904F370 N161 ARKAM/K0895F390 N161 SARIN/K0887S1190 A368 FKG W188 LIKMI W270 DKO/K0893S1250 W69 HUR B339 LADIX W34 VAPGU W100 ORAVA W201 UNSEK A326 DONVO G597 AGAVO/N0486F410 Y644 EGOBA Y697 LANAT Y597 MIHOU Y361 SAEKI Y36 ATMUG |
| Aircraft | A359/H-SDE2E3GHIJ1J3J4J5M1P2RWXYZ/LB1D1 |
Departure
| Time | 2026-05-05 10:51 |
|---|---|
| Airport | Munich Airport (EDDM) |
Arrival
| Time | N/A |
|---|---|
| Airport | Kansai International Airport (RJBB) |
| Time | Latitude | Longitude | Altitude | Speed | Heading |
|---|---|---|---|---|---|
| 2026-05-05 10:15 | 48.35693 | 11.79685 | 1479 ft | 0 kts | 83° |
| 2026-05-05 10:16 | 48.35693 | 11.79695 | 1481 ft | 0 kts | 83° |
| 2026-05-05 10:20 | 48.35693 | 11.79685 | 1476 ft | 0 kts | 83° |
| 2026-05-05 10:23 | 48.35693 | 11.79695 | 1492 ft | 0 kts | 83° |
| 2026-05-05 10:37 | 48.35691 | 11.79667 | 1491 ft | 4 kts | 83° |
| 2026-05-05 10:37 | 48.35688 | 11.79626 | 1491 ft | 4 kts | 83° |
| 2026-05-05 10:38 | 48.35686 | 11.79594 | 1491 ft | 4 kts | 93° |
| 2026-05-05 10:38 | 48.35692 | 11.79558 | 1491 ft | 4 kts | 136° |
| 2026-05-05 10:38 | 48.35712 | 11.79545 | 1476 ft | 4 kts | 173° |
| 2026-05-05 10:38 | 48.35737 | 11.79541 | 1491 ft | 2 kts | 173° |
| 2026-05-05 10:39 | 48.35738 | 11.79541 | 1489 ft | 0 kts | 173° |
| 2026-05-05 10:44 | 48.35736 | 11.79541 | 1478 ft | 2 kts | 173° |
| 2026-05-05 10:44 | 48.35710 | 11.79545 | 1484 ft | 6 kts | 173° |
| 2026-05-05 10:45 | 48.35653 | 11.79555 | 1480 ft | 9 kts | 173° |
| 2026-05-05 10:45 | 48.35583 | 11.79567 | 1481 ft | 14 kts | 173° |
| 2026-05-05 10:45 | 48.35479 | 11.79585 | 1481 ft | 16 kts | 173° |
| 2026-05-05 10:45 | 48.35368 | 11.79605 | 1487 ft | 16 kts | 173° |
| 2026-05-05 10:46 | 48.35257 | 11.79623 | 1479 ft | 16 kts | 173° |
| 2026-05-05 10:46 | 48.35148 | 11.79643 | 1478 ft | 16 kts | 173° |
| 2026-05-05 10:46 | 48.35038 | 11.79662 | 1481 ft | 16 kts | 173° |
| 2026-05-05 10:46 | 48.34929 | 11.79681 | 1485 ft | 16 kts | 173° |
| 2026-05-05 10:47 | 48.34836 | 11.79697 | 1487 ft | 9 kts | 173° |
| 2026-05-05 10:47 | 48.34810 | 11.79741 | 1477 ft | 5 kts | 102° |
| 2026-05-05 10:47 | 48.34813 | 11.79837 | 1484 ft | 13 kts | 83° |
| 2026-05-05 10:47 | 48.34823 | 11.79974 | 1479 ft | 13 kts | 83° |
| 2026-05-05 10:48 | 48.34834 | 11.80112 | 1476 ft | 13 kts | 83° |
| 2026-05-05 10:48 | 48.34845 | 11.80257 | 1482 ft | 16 kts | 83° |
| 2026-05-05 10:48 | 48.34856 | 11.80427 | 1491 ft | 16 kts | 93° |
| 2026-05-05 10:48 | 48.34791 | 11.80549 | 1478 ft | 15 kts | 157° |
| 2026-05-05 10:49 | 48.34689 | 11.80570 | 1483 ft | 15 kts | 173° |
| 2026-05-05 10:49 | 48.34597 | 11.80533 | 1487 ft | 14 kts | 218° |
| 2026-05-05 10:49 | 48.34520 | 11.80443 | 1476 ft | 14 kts | 218° |
| 2026-05-05 10:49 | 48.34472 | 11.80329 | 1491 ft | 13 kts | 262° |
| 2026-05-05 10:50 | 48.34456 | 11.80153 | 1487 ft | 29 kts | 263° |
| 2026-05-05 10:50 | 48.34407 | 11.79518 | 1476 ft | 92 kts | 263° |
| 2026-05-05 10:50 | 48.34313 | 11.78270 | 1492 ft | 147 kts | 263° |
| 2026-05-05 10:50 | 48.34179 | 11.76532 | 1692 ft | 173 kts | 263° |
| 2026-05-05 10:51 | 48.34042 | 11.74759 | 2378 ft | 173 kts | 264° |
| 2026-05-05 10:51 | 48.33884 | 11.72910 | 2752 ft | 186 kts | 258° |
| 2026-05-05 10:51 | 48.33176 | 11.71247 | 2919 ft | 200 kts | 216° |
| 2026-05-05 10:51 | 48.31845 | 11.70620 | 3131 ft | 213 kts | 183° |
| 2026-05-05 10:52 | 48.30329 | 11.70620 | 3473 ft | 221 kts | 179° |
| 2026-05-05 10:52 | 48.28798 | 11.70940 | 3935 ft | 224 kts | 162° |
| 2026-05-05 10:52 | 48.27381 | 11.72036 | 4237 ft | 238 kts | 147° |
| 2026-05-05 10:52 | 48.25963 | 11.73495 | 4499 ft | 255 kts | 145° |
| 2026-05-05 10:53 | 48.24474 | 11.75055 | 4843 ft | 266 kts | 145° |
| 2026-05-05 10:53 | 48.22932 | 11.76657 | 5378 ft | 271 kts | 146° |
| 2026-05-05 10:53 | 48.21435 | 11.78390 | 5979 ft | 274 kts | 136° |
| 2026-05-05 10:53 | 48.20314 | 11.80702 | 6569 ft | 277 kts | 114° |
| 2026-05-05 10:54 | 48.19886 | 11.83512 | 7194 ft | 279 kts | 93° |
| 2026-05-05 10:54 | 48.19858 | 11.86400 | 7818 ft | 282 kts | 90° |
| 2026-05-05 10:54 | 48.19897 | 11.89394 | 8456 ft | 285 kts | 89° |
| 2026-05-05 10:54 | 48.19941 | 11.92336 | 9077 ft | 288 kts | 89° |
| 2026-05-05 10:55 | 48.19983 | 11.95363 | 9716 ft | 291 kts | 90° |
| 2026-05-05 10:55 | 48.20021 | 11.98410 | 10209 ft | 299 kts | 90° |
| 2026-05-05 10:55 | 48.20062 | 12.01608 | 10479 ft | 315 kts | 89° |
| 2026-05-05 10:55 | 48.20104 | 12.04970 | 10745 ft | 330 kts | 90° |
| 2026-05-05 10:56 | 48.20145 | 12.08482 | 11019 ft | 344 kts | 90° |
| 2026-05-05 10:56 | 48.20189 | 12.12142 | 11278 ft | 357 kts | 90° |
| 2026-05-05 10:56 | 48.20231 | 12.15930 | 11533 ft | 370 kts | 90° |
| 2026-05-05 10:56 | 48.20274 | 12.19857 | 11794 ft | 382 kts | 90° |
| 2026-05-05 10:57 | 48.20315 | 12.23862 | 12205 ft | 388 kts | 90° |
| 2026-05-05 10:57 | 48.20356 | 12.27938 | 12699 ft | 392 kts | 90° |
| 2026-05-05 10:57 | 48.20395 | 12.32047 | 13186 ft | 395 kts | 90° |
| 2026-05-05 10:57 | 48.20436 | 12.36196 | 13672 ft | 399 kts | 90° |
| 2026-05-05 10:58 | 48.20474 | 12.40321 | 14162 ft | 402 kts | 90° |
| 2026-05-05 10:58 | 48.20511 | 12.44530 | 14655 ft | 405 kts | 90° |
| 2026-05-05 10:58 | 48.20547 | 12.48770 | 15122 ft | 408 kts | 90° |
| 2026-05-05 10:58 | 48.20581 | 12.53039 | 15603 ft | 412 kts | 90° |
| 2026-05-05 10:59 | 48.20613 | 12.57349 | 16079 ft | 415 kts | 90° |
| 2026-05-05 10:59 | 48.20645 | 12.61688 | 16558 ft | 418 kts | 90° |
| 2026-05-05 10:59 | 48.20675 | 12.66067 | 17027 ft | 421 kts | 90° |
| 2026-05-05 10:59 | 48.20704 | 12.70467 | 17461 ft | 424 kts | 90° |
| 2026-05-05 11:00 | 48.20730 | 12.74900 | 17894 ft | 427 kts | 90° |
| 2026-05-05 11:00 | 48.20756 | 12.79379 | 18336 ft | 430 kts | 90° |
| 2026-05-05 11:00 | 48.20782 | 12.83876 | 18774 ft | 433 kts | 90° |
| 2026-05-05 11:00 | 48.20834 | 12.88402 | 19211 ft | 436 kts | 89° |
| 2026-05-05 11:01 | 48.20826 | 12.92950 | 19626 ft | 438 kts | 95° |
| 2026-05-05 11:01 | 48.20368 | 12.97469 | 20058 ft | 440 kts | 102° |
| 2026-05-05 11:01 | 48.19665 | 13.01958 | 20482 ft | 443 kts | 105° |
| 2026-05-05 11:01 | 48.18849 | 13.06412 | 20936 ft | 445 kts | 107° |
| 2026-05-05 11:02 | 48.17967 | 13.10881 | 21373 ft | 448 kts | 107° |
| 2026-05-05 11:02 | 48.17069 | 13.15305 | 21793 ft | 451 kts | 108° |
| 2026-05-05 11:02 | 48.16149 | 13.19815 | 22205 ft | 454 kts | 107° |
| 2026-05-05 11:02 | 48.15230 | 13.24340 | 22674 ft | 456 kts | 107° |
| 2026-05-05 11:03 | 48.14310 | 13.28910 | 23095 ft | 459 kts | 107° |
| 2026-05-05 11:03 | 48.13387 | 13.33513 | 23490 ft | 462 kts | 107° |
| 2026-05-05 11:03 | 48.12465 | 13.38125 | 23883 ft | 465 kts | 107° |
| 2026-05-05 11:03 | 48.11534 | 13.42777 | 24261 ft | 468 kts | 107° |
| 2026-05-05 11:04 | 48.10594 | 13.47467 | 24638 ft | 471 kts | 107° |
| 2026-05-05 11:04 | 48.09650 | 13.52170 | 25007 ft | 473 kts | 107° |
| 2026-05-05 11:04 | 48.08699 | 13.56899 | 25359 ft | 476 kts | 107° |
| 2026-05-05 11:04 | 48.07741 | 13.61649 | 25753 ft | 478 kts | 107° |
| 2026-05-05 11:05 | 48.06773 | 13.66431 | 26122 ft | 481 kts | 107° |
| 2026-05-05 11:05 | 48.05799 | 13.71228 | 26482 ft | 483 kts | 107° |
| 2026-05-05 11:05 | 48.04818 | 13.76049 | 26823 ft | 485 kts | 107° |
| 2026-05-05 11:05 | 48.03834 | 13.80876 | 27171 ft | 487 kts | 107° |
| 2026-05-05 11:06 | 48.02854 | 13.85671 | 27516 ft | 489 kts | 107° |
| 2026-05-05 11:06 | 48.01853 | 13.90546 | 27834 ft | 491 kts | 107° |
| 2026-05-05 11:06 | 48.00848 | 13.95434 | 28160 ft | 493 kts | 107° |
| 2026-05-05 11:06 | 47.99836 | 14.00344 | 28474 ft | 495 kts | 108° |
| 2026-05-05 11:07 | 47.98821 | 14.05259 | 28782 ft | 497 kts | 108° |
| 2026-05-05 11:07 | 47.97802 | 14.10186 | 29071 ft | 499 kts | 108° |
| 2026-05-05 11:07 | 47.96771 | 14.15153 | 29347 ft | 500 kts | 108° |
| 2026-05-05 11:07 | 47.95741 | 14.20104 | 29728 ft | 499 kts | 108° |
| 2026-05-05 11:08 | 47.94711 | 14.25046 | 30129 ft | 498 kts | 108° |
| 2026-05-05 11:08 | 47.93681 | 14.29970 | 30500 ft | 496 kts | 108° |
| 2026-05-05 11:08 | 47.92652 | 14.34881 | 30817 ft | 496 kts | 108° |
| 2026-05-05 11:08 | 47.91622 | 14.39787 | 31106 ft | 496 kts | 108° |
| 2026-05-05 11:09 | 47.90593 | 14.44680 | 31413 ft | 495 kts | 108° |
| 2026-05-05 11:09 | 47.89560 | 14.49571 | 31722 ft | 495 kts | 108° |
| 2026-05-05 11:09 | 47.88538 | 14.54397 | 32040 ft | 493 kts | 108° |
| 2026-05-05 11:09 | 47.87504 | 14.59267 | 32306 ft | 493 kts | 108° |
| 2026-05-05 11:10 | 47.86467 | 14.64141 | 32571 ft | 493 kts | 108° |
| 2026-05-05 11:10 | 47.85432 | 14.68999 | 32829 ft | 492 kts | 108° |
| 2026-05-05 11:10 | 47.84395 | 14.73853 | 33094 ft | 491 kts | 108° |
| 2026-05-05 11:10 | 47.83360 | 14.78691 | 33340 ft | 491 kts | 108° |
| 2026-05-05 11:11 | 47.82323 | 14.83523 | 33576 ft | 490 kts | 108° |
| 2026-05-05 11:11 | 47.81284 | 14.88353 | 33802 ft | 490 kts | 108° |
| 2026-05-05 11:11 | 47.80244 | 14.93180 | 34008 ft | 489 kts | 108° |
| 2026-05-05 11:11 | 47.79203 | 14.97994 | 34223 ft | 489 kts | 108° |
| 2026-05-05 11:12 | 47.78161 | 15.02801 | 34439 ft | 488 kts | 108° |
| 2026-05-05 11:12 | 47.77118 | 15.07604 | 34641 ft | 488 kts | 108° |
| 2026-05-05 11:12 | 47.76072 | 15.12409 | 34809 ft | 488 kts | 108° |
| 2026-05-05 11:12 | 47.75029 | 15.17198 | 34999 ft | 488 kts | 109° |
| 2026-05-05 11:13 | 47.73983 | 15.21988 | 35149 ft | 488 kts | 109° |
| 2026-05-05 11:13 | 47.72932 | 15.26786 | 35303 ft | 488 kts | 109° |
| 2026-05-05 11:13 | 47.71880 | 15.31572 | 35463 ft | 487 kts | 109° |
| 2026-05-05 11:13 | 47.70826 | 15.36355 | 35606 ft | 487 kts | 109° |
| 2026-05-05 11:14 | 47.69770 | 15.41138 | 35749 ft | 487 kts | 109° |
| 2026-05-05 11:14 | 47.68713 | 15.45919 | 35908 ft | 487 kts | 109° |
| 2026-05-05 11:14 | 47.67654 | 15.50694 | 36053 ft | 486 kts | 109° |
| 2026-05-05 11:14 | 47.66606 | 15.55404 | 36163 ft | 486 kts | 109° |
| 2026-05-05 11:15 | 47.65545 | 15.60161 | 36276 ft | 486 kts | 109° |
| 2026-05-05 11:15 | 47.64480 | 15.64926 | 36387 ft | 486 kts | 109° |
| 2026-05-05 11:15 | 47.63415 | 15.69695 | 36502 ft | 487 kts | 109° |
| 2026-05-05 11:15 | 47.62349 | 15.74456 | 36606 ft | 486 kts | 109° |
| 2026-05-05 11:16 | 47.61279 | 15.79224 | 36759 ft | 485 kts | 109° |
| 2026-05-05 11:16 | 47.60213 | 15.83959 | 36861 ft | 485 kts | 109° |
| 2026-05-05 11:16 | 47.59144 | 15.88695 | 36869 ft | 483 kts | 109° |
| 2026-05-05 11:17 | 47.57007 | 15.98127 | 36871 ft | 482 kts | 109° |
| 2026-05-05 11:17 | 47.54864 | 16.07540 | 36868 ft | 483 kts | 109° |
| 2026-05-05 11:18 | 47.52729 | 16.16889 | 36870 ft | 482 kts | 109° |
| 2026-05-05 11:18 | 47.50568 | 16.26304 | 36869 ft | 483 kts | 109° |
| 2026-05-05 11:19 | 47.48403 | 16.35691 | 36881 ft | 483 kts | 109° |
| 2026-05-05 11:19 | 47.46230 | 16.45076 | 36880 ft | 483 kts | 109° |
| 2026-05-05 11:20 | 47.44047 | 16.54469 | 36881 ft | 483 kts | 109° |
| 2026-05-05 11:20 | 47.41860 | 16.63841 | 36884 ft | 483 kts | 109° |
| 2026-05-05 11:21 | 47.39665 | 16.73208 | 36898 ft | 483 kts | 110° |
| 2026-05-05 11:21 | 47.37460 | 16.82557 | 36895 ft | 483 kts | 110° |
| 2026-05-05 11:22 | 47.35248 | 16.91904 | 36910 ft | 482 kts | 110° |
| 2026-05-05 11:22 | 47.33028 | 17.01248 | 36935 ft | 483 kts | 110° |
| 2026-05-05 11:23 | 47.30797 | 17.10591 | 36934 ft | 483 kts | 110° |
| 2026-05-05 11:23 | 47.28561 | 17.19919 | 36934 ft | 483 kts | 110° |
| 2026-05-05 11:24 | 47.26696 | 17.27673 | 36942 ft | 483 kts | 110° |
| 2026-05-05 11:24 | 47.24448 | 17.36983 | 36943 ft | 483 kts | 110° |
| 2026-05-05 11:25 | 47.22190 | 17.46289 | 36943 ft | 483 kts | 110° |
| 2026-05-05 11:25 | 47.19922 | 17.55598 | 36944 ft | 483 kts | 110° |
| 2026-05-05 11:26 | 47.17650 | 17.64891 | 36944 ft | 483 kts | 110° |
| 2026-05-05 11:26 | 47.15370 | 17.74176 | 36943 ft | 483 kts | 110° |
| 2026-05-05 11:27 | 47.13083 | 17.83448 | 36944 ft | 482 kts | 110° |
| 2026-05-05 11:27 | 47.10793 | 17.92695 | 36953 ft | 483 kts | 110° |
| 2026-05-05 11:28 | 47.08489 | 18.01958 | 36952 ft | 483 kts | 110° |
| 2026-05-05 11:28 | 47.06179 | 18.11210 | 36962 ft | 483 kts | 110° |
| 2026-05-05 11:29 | 47.03878 | 18.20390 | 36962 ft | 483 kts | 110° |
| 2026-05-05 11:29 | 47.01555 | 18.29622 | 36970 ft | 483 kts | 110° |
| 2026-05-05 11:30 | 46.99220 | 18.38859 | 36971 ft | 483 kts | 110° |
| 2026-05-05 11:30 | 46.96880 | 18.48079 | 36971 ft | 483 kts | 110° |
| 2026-05-05 11:31 | 46.94533 | 18.57292 | 36971 ft | 482 kts | 110° |
| 2026-05-05 11:31 | 46.92182 | 18.66488 | 36977 ft | 483 kts | 110° |
| 2026-05-05 11:32 | 46.89821 | 18.75680 | 36971 ft | 483 kts | 110° |
| 2026-05-05 11:32 | 46.87450 | 18.84875 | 36971 ft | 483 kts | 110° |
| 2026-05-05 11:33 | 46.85078 | 18.94045 | 36971 ft | 483 kts | 111° |
| 2026-05-05 11:33 | 46.82690 | 19.03218 | 36971 ft | 483 kts | 111° |
| 2026-05-05 11:34 | 46.80303 | 19.12362 | 36979 ft | 483 kts | 111° |
| 2026-05-05 11:34 | 46.77920 | 19.21466 | 36985 ft | 483 kts | 111° |
| 2026-05-05 11:35 | 46.75518 | 19.30602 | 36990 ft | 483 kts | 111° |
| 2026-05-05 11:35 | 46.73098 | 19.39765 | 36990 ft | 483 kts | 111° |
| 2026-05-05 11:36 | 46.70675 | 19.48904 | 36989 ft | 483 kts | 111° |
| 2026-05-05 11:36 | 46.68245 | 19.58037 | 36990 ft | 483 kts | 111° |
| 2026-05-05 11:37 | 46.65824 | 19.67107 | 36989 ft | 483 kts | 111° |
| 2026-05-05 11:37 | 46.63378 | 19.76226 | 36990 ft | 483 kts | 111° |
| 2026-05-05 11:38 | 46.60928 | 19.85326 | 36999 ft | 484 kts | 111° |
| 2026-05-05 11:38 | 46.58468 | 19.94432 | 36999 ft | 484 kts | 111° |
| 2026-05-05 11:39 | 46.56003 | 20.03516 | 36999 ft | 484 kts | 111° |
| 2026-05-05 11:39 | 46.53530 | 20.12593 | 36999 ft | 483 kts | 111° |
| 2026-05-05 11:40 | 46.51048 | 20.21674 | 36999 ft | 483 kts | 111° |
| 2026-05-05 11:40 | 46.48562 | 20.30736 | 36999 ft | 483 kts | 111° |
| 2026-05-05 11:41 | 46.46070 | 20.39793 | 37008 ft | 483 kts | 111° |
| 2026-05-05 11:41 | 46.43583 | 20.48782 | 37008 ft | 483 kts | 111° |
| 2026-05-05 11:42 | 46.41073 | 20.57818 | 37008 ft | 483 kts | 111° |
| 2026-05-05 11:42 | 46.38556 | 20.66858 | 37014 ft | 483 kts | 111° |
| 2026-05-05 11:43 | 46.36032 | 20.75889 | 37017 ft | 483 kts | 111° |
| 2026-05-05 11:43 | 46.33503 | 20.84898 | 37018 ft | 483 kts | 111° |
| 2026-05-05 11:44 | 46.30971 | 20.93886 | 37017 ft | 483 kts | 111° |
| 2026-05-05 11:44 | 46.28422 | 21.02901 | 37017 ft | 483 kts | 111° |
| 2026-05-05 11:45 | 46.25875 | 21.11872 | 37017 ft | 483 kts | 111° |
| 2026-05-05 11:45 | 46.23330 | 21.20785 | 37018 ft | 482 kts | 112° |
| 2026-05-05 11:46 | 46.20775 | 21.29677 | 37017 ft | 482 kts | 112° |
| 2026-05-05 11:46 | 46.18196 | 21.38623 | 37017 ft | 482 kts | 112° |
| 2026-05-05 11:47 | 46.15610 | 21.47556 | 37018 ft | 482 kts | 112° |
| 2026-05-05 11:47 | 46.13022 | 21.56471 | 37017 ft | 483 kts | 112° |
| 2026-05-05 11:48 | 46.09124 | 21.69849 | 37017 ft | 482 kts | 112° |
| 2026-05-05 11:48 | 46.06518 | 21.78749 | 37018 ft | 482 kts | 112° |
| 2026-05-05 11:49 | 46.03904 | 21.87645 | 37016 ft | 482 kts | 112° |
| 2026-05-05 11:49 | 46.01287 | 21.96517 | 37020 ft | 482 kts | 112° |
| 2026-05-05 11:50 | 45.98674 | 22.05344 | 37019 ft | 482 kts | 112° |
| 2026-05-05 11:50 | 45.96040 | 22.14214 | 37017 ft | 482 kts | 112° |
| 2026-05-05 11:51 | 45.93405 | 22.23054 | 37017 ft | 482 kts | 112° |
| 2026-05-05 11:51 | 45.90758 | 22.31900 | 37017 ft | 482 kts | 112° |
| 2026-05-05 11:52 | 45.88101 | 22.40748 | 37018 ft | 482 kts | 112° |
| 2026-05-05 11:52 | 45.85438 | 22.49582 | 37018 ft | 483 kts | 112° |
| 2026-05-05 11:53 | 45.82766 | 22.58425 | 37020 ft | 483 kts | 112° |
| 2026-05-05 11:53 | 45.80105 | 22.67200 | 37030 ft | 483 kts | 112° |
| 2026-05-05 11:54 | 45.77421 | 22.76014 | 37030 ft | 482 kts | 112° |
| 2026-05-05 11:54 | 45.74727 | 22.84825 | 37041 ft | 483 kts | 112° |
| 2026-05-05 11:55 | 45.72026 | 22.93634 | 37029 ft | 483 kts | 112° |
| 2026-05-05 11:55 | 45.69317 | 23.02437 | 37026 ft | 483 kts | 112° |
| 2026-05-05 11:56 | 45.66602 | 23.11234 | 37026 ft | 483 kts | 113° |
| 2026-05-05 11:56 | 45.63877 | 23.20022 | 37026 ft | 483 kts | 113° |
| 2026-05-05 11:57 | 45.61149 | 23.28799 | 37026 ft | 483 kts | 113° |
| 2026-05-05 11:57 | 45.58431 | 23.37520 | 37025 ft | 483 kts | 113° |
| 2026-05-05 11:58 | 45.55690 | 23.46283 | 37026 ft | 483 kts | 113° |
| 2026-05-05 11:58 | 45.52941 | 23.55029 | 37027 ft | 483 kts | 113° |
| 2026-05-05 11:59 | 45.50189 | 23.63767 | 37026 ft | 482 kts | 113° |
| 2026-05-05 11:59 | 45.47435 | 23.72484 | 37027 ft | 483 kts | 113° |
| 2026-05-05 12:00 | 45.44669 | 23.81196 | 37027 ft | 483 kts | 113° |
| 2026-05-05 12:00 | 45.41896 | 23.89902 | 37026 ft | 483 kts | 113° |
| 2026-05-05 12:01 | 45.39121 | 23.98591 | 37027 ft | 483 kts | 113° |
| 2026-05-05 12:01 | 45.36352 | 24.07228 | 37026 ft | 483 kts | 113° |
| 2026-05-05 12:02 | 45.33561 | 24.15909 | 37026 ft | 483 kts | 113° |
| 2026-05-05 12:02 | 45.30762 | 24.24577 | 37026 ft | 483 kts | 114° |
| 2026-05-05 12:03 | 45.27958 | 24.33235 | 37026 ft | 483 kts | 114° |
| 2026-05-05 12:03 | 45.25150 | 24.41890 | 37027 ft | 483 kts | 114° |
| 2026-05-05 12:04 | 45.22332 | 24.50543 | 37036 ft | 483 kts | 114° |
| 2026-05-05 12:04 | 45.19509 | 24.59176 | 37036 ft | 483 kts | 114° |
| 2026-05-05 12:05 | 45.16675 | 24.67811 | 37043 ft | 483 kts | 114° |
| 2026-05-05 12:05 | 45.13833 | 24.76450 | 37032 ft | 483 kts | 114° |
| 2026-05-05 12:06 | 45.10989 | 24.85067 | 37032 ft | 483 kts | 114° |
| 2026-05-05 12:06 | 45.08142 | 24.93664 | 37043 ft | 483 kts | 114° |
| 2026-05-05 12:07 | 45.05280 | 25.02272 | 37046 ft | 483 kts | 114° |
| 2026-05-05 12:07 | 45.02435 | 25.10802 | 37047 ft | 483 kts | 114° |
| 2026-05-05 12:08 | 44.99558 | 25.19397 | 37045 ft | 483 kts | 114° |
| 2026-05-05 12:08 | 44.96681 | 25.27971 | 37046 ft | 483 kts | 114° |
| 2026-05-05 12:09 | 44.93802 | 25.36530 | 37046 ft | 482 kts | 114° |
| 2026-05-05 12:09 | 44.90914 | 25.45084 | 37043 ft | 483 kts | 114° |
| 2026-05-05 12:10 | 44.88506 | 25.52188 | 37046 ft | 483 kts | 114° |
| 2026-05-05 12:10 | 44.85131 | 25.62113 | 37046 ft | 483 kts | 115° |
| 2026-05-05 12:11 | 44.82224 | 25.70637 | 37046 ft | 483 kts | 115° |
| 2026-05-05 12:11 | 44.79781 | 25.77783 | 37042 ft | 483 kts | 115° |
| 2026-05-05 12:12 | 44.76883 | 25.86237 | 37045 ft | 483 kts | 115° |
| 2026-05-05 12:12 | 44.73936 | 25.94797 | 37044 ft | 483 kts | 115° |
| 2026-05-05 12:13 | 44.71021 | 26.03245 | 37048 ft | 483 kts | 115° |
| 2026-05-05 12:13 | 44.68083 | 26.11731 | 37048 ft | 483 kts | 115° |
| 2026-05-05 12:14 | 44.65138 | 26.20206 | 37047 ft | 483 kts | 115° |
| 2026-05-05 12:14 | 44.62185 | 26.28680 | 37045 ft | 482 kts | 115° |
| 2026-05-05 12:15 | 44.59227 | 26.37139 | 37047 ft | 482 kts | 115° |
| 2026-05-05 12:15 | 44.56265 | 26.45582 | 37047 ft | 482 kts | 115° |
| 2026-05-05 12:16 | 44.53298 | 26.54019 | 37046 ft | 482 kts | 115° |
| 2026-05-05 12:16 | 44.50345 | 26.62389 | 37047 ft | 482 kts | 115° |
| 2026-05-05 12:17 | 44.47368 | 26.70805 | 37047 ft | 482 kts | 115° |
| 2026-05-05 12:17 | 44.44386 | 26.79205 | 37052 ft | 482 kts | 115° |
| 2026-05-05 12:18 | 44.41398 | 26.87590 | 37053 ft | 482 kts | 116° |
| 2026-05-05 12:18 | 44.38404 | 26.95972 | 37055 ft | 481 kts | 116° |
| 2026-05-05 12:19 | 44.35406 | 27.04339 | 37055 ft | 481 kts | 116° |
| 2026-05-05 12:19 | 44.32403 | 27.12693 | 37059 ft | 481 kts | 116° |
| 2026-05-05 12:20 | 44.29396 | 27.21028 | 37063 ft | 480 kts | 116° |
| 2026-05-05 12:20 | 44.26385 | 27.29359 | 37055 ft | 480 kts | 116° |
| 2026-05-05 12:21 | 44.23370 | 27.37670 | 37056 ft | 480 kts | 116° |
| 2026-05-05 12:21 | 44.20353 | 27.45962 | 37054 ft | 479 kts | 116° |
| 2026-05-05 12:22 | 44.17335 | 27.54237 | 37061 ft | 479 kts | 116° |
| 2026-05-05 12:22 | 44.14307 | 27.62512 | 37064 ft | 479 kts | 116° |
| 2026-05-05 12:23 | 44.11273 | 27.70775 | 37067 ft | 479 kts | 116° |
| 2026-05-05 12:23 | 44.08238 | 27.79023 | 37072 ft | 479 kts | 116° |
| 2026-05-05 12:24 | 44.05213 | 27.87210 | 37072 ft | 479 kts | 116° |
| 2026-05-05 12:24 | 44.02166 | 27.95435 | 37073 ft | 479 kts | 116° |
| 2026-05-05 12:25 | 43.99110 | 28.03660 | 37072 ft | 479 kts | 116° |
| 2026-05-05 12:25 | 43.96052 | 28.11871 | 37074 ft | 479 kts | 116° |
| 2026-05-05 12:26 | 43.92984 | 28.20081 | 37074 ft | 479 kts | 116° |
| 2026-05-05 12:26 | 43.89908 | 28.28291 | 37072 ft | 479 kts | 117° |
| 2026-05-05 12:27 | 43.86828 | 28.36482 | 37073 ft | 479 kts | 117° |
| 2026-05-05 12:27 | 43.83739 | 28.44676 | 37073 ft | 480 kts | 117° |
| 2026-05-05 12:28 | 43.80642 | 28.52867 | 37074 ft | 480 kts | 117° |
| 2026-05-05 12:28 | 43.77541 | 28.61045 | 37072 ft | 480 kts | 117° |
| 2026-05-05 12:29 | 43.74431 | 28.69221 | 37073 ft | 480 kts | 117° |
| 2026-05-05 12:29 | 43.71315 | 28.77390 | 37074 ft | 481 kts | 117° |
| 2026-05-05 12:30 | 43.67741 | 28.85150 | 37072 ft | 482 kts | 124° |
| 2026-05-05 12:30 | 43.63844 | 28.92690 | 37073 ft | 482 kts | 125° |
| 2026-05-05 12:31 | 43.59896 | 29.00175 | 37073 ft | 483 kts | 125° |
| 2026-05-05 12:31 | 43.55939 | 29.07672 | 37073 ft | 483 kts | 125° |
| 2026-05-05 12:32 | 43.51984 | 29.15171 | 37072 ft | 483 kts | 125° |
| 2026-05-05 12:32 | 43.48029 | 29.22660 | 37073 ft | 483 kts | 125° |
| 2026-05-05 12:33 | 43.44067 | 29.30147 | 37073 ft | 484 kts | 125° |
| 2026-05-05 12:33 | 43.40102 | 29.37616 | 37073 ft | 484 kts | 125° |
| 2026-05-05 12:34 | 43.36122 | 29.45088 | 37073 ft | 484 kts | 125° |
| 2026-05-05 12:34 | 43.32143 | 29.52543 | 37073 ft | 484 kts | 125° |
| 2026-05-05 12:35 | 43.28159 | 29.59991 | 37072 ft | 484 kts | 125° |
| 2026-05-05 12:35 | 43.24161 | 29.67445 | 37073 ft | 484 kts | 125° |
| 2026-05-05 12:36 | 43.20187 | 29.74831 | 37071 ft | 484 kts | 125° |
| 2026-05-05 12:36 | 43.16184 | 29.82259 | 37074 ft | 484 kts | 125° |
| 2026-05-05 12:37 | 43.12173 | 29.89680 | 37072 ft | 484 kts | 125° |
| 2026-05-05 12:37 | 43.08156 | 29.97091 | 37074 ft | 485 kts | 125° |